createdAt,value
2018-02-04T00:00:03.549Z,777.39
2018-02-04T00:00:07.665Z,777.41
2018-02-04T00:00:11.566Z,777.4
2018-02-04T00:00:15.474Z,777.38
2018-02-04T00:00:19.374Z,777.41
2018-02-04T00:00:23.271Z,777.39
2018-02-04T00:00:27.166Z,777.42
2018-02-04T00:00:31.060Z,777.4
2018-02-04T00:00:34.956Z,777.39
2018-02-04T00:00:39.174Z,777.4
2018-02-04T00:00:43.183Z,777.39
2018-02-04T00:00:47.290Z,777.36
2018-02-04T00:00:51.078Z,777.39
2018-02-04T00:00:55.185Z,777.4
2018-02-04T00:00:59.298Z,777.38
2018-02-04T00:01:03.091Z,777.38
2018-02-04T00:01:06.883Z,777.4
2018-02-04T00:01:10.775Z,777.4
2018-02-04T00:01:14.458Z,777.4
2018-02-04T00:01:18.350Z,777.38
2018-02-04T00:01:22.347Z,777.39
2018-02-04T00:01:26.457Z,777.39
2018-02-04T00:01:30.249Z,777.4
2018-02-04T00:01:34.041Z,777.4
2018-02-04T00:01:38.040Z,777.45
2018-02-04T00:01:42.040Z,777.43
2018-02-04T00:01:46.148Z,777.4
2018-02-04T00:01:50.043Z,777.41
2018-02-04T00:01:54.152Z,777.38
2018-02-04T00:01:57.833Z,777.42
2018-02-04T00:02:01.619Z,777.4
2018-02-04T00:02:05.510Z,777.41
2018-02-04T00:02:09.412Z,777.41
2018-02-04T00:02:13.312Z,777.38
2018-02-04T00:02:17.415Z,777.39
2018-02-04T00:02:21.307Z,777.4
2018-02-04T00:02:25.311Z,777.41
2018-02-04T00:02:29.098Z,777.42
2018-02-04T00:02:33.207Z,777.39
2018-02-04T00:02:37.098Z,777.4
2018-02-04T00:02:41.102Z,777.41
2018-02-04T00:02:45.099Z,777.4
2018-02-04T00:02:48.989Z,777.4
2018-02-04T00:02:52.885Z,777.4
2018-02-04T00:02:56.772Z,777.41
2018-02-04T00:03:00.802Z,777.41
2018-02-04T00:03:04.698Z,777.42
2018-02-04T00:03:08.486Z,777.42
2018-02-04T00:03:12.488Z,777.41
2018-02-04T00:03:16.592Z,777.39
2018-02-04T00:03:20.810Z,777.36
2018-02-04T00:03:24.707Z,777.43
2018-02-04T00:03:28.601Z,777.35
2018-02-04T00:03:32.281Z,777.43
2018-02-04T00:03:36.383Z,777.46
2018-02-04T00:03:40.384Z,777.42
2018-02-04T00:03:44.175Z,777.42
2018-02-04T00:03:47.857Z,777.43
2018-02-04T00:03:51.864Z,777.43
2018-02-04T00:03:55.861Z,777.41
2018-02-04T00:03:59.870Z,777.41
2018-02-04T00:04:03.955Z,777.42
2018-02-04T00:04:08.069Z,777.41
2018-02-04T00:04:11.973Z,777.44
2018-02-04T00:04:16.080Z,777.43
2018-02-04T00:04:20.082Z,777.44
2018-02-04T00:04:24.196Z,777.4
2018-02-04T00:04:28.311Z,777.43
2018-02-04T00:04:32.317Z,777.42
2018-02-04T00:04:36.434Z,777.43
2018-02-04T00:04:40.327Z,777.45
2018-02-04T00:04:44.223Z,777.43
2018-02-04T00:04:48.377Z,777.4
2018-02-04T00:04:52.166Z,777.41
2018-02-04T00:04:56.063Z,777.43
2018-02-04T00:04:59.955Z,777.44
2018-02-04T00:05:04.047Z,777.43
2018-02-04T00:05:08.151Z,777.45
2018-02-04T00:05:12.056Z,777.41
2018-02-04T00:05:16.103Z,777.41
2018-02-04T00:05:19.894Z,777.42
2018-02-04T00:05:24.009Z,777.4
2018-02-04T00:05:27.902Z,777.42
2018-02-04T00:05:31.797Z,777.42
2018-02-04T00:05:35.804Z,777.47
2018-02-04T00:05:40.017Z,777.47
2018-02-04T00:05:44.123Z,777.46
2018-02-04T00:05:48.025Z,777.47
2018-02-04T00:05:51.816Z,777.44
2018-02-04T00:05:55.712Z,777.5
2018-02-04T00:05:59.821Z,777.48
2018-02-04T00:06:03.869Z,777.46
2018-02-04T00:06:07.663Z,777.48
2018-02-04T00:06:11.782Z,777.49
2018-02-04T00:06:15.574Z,777.49
2018-02-04T00:06:19.469Z,777.5
2018-02-04T00:06:23.466Z,777.5
2018-02-04T00:06:27.463Z,777.51
2018-02-04T00:06:31.574Z,777.52
2018-02-04T00:06:35.471Z,777.54
2018-02-04T00:06:39.366Z,777.52
2018-02-04T00:06:43.267Z,777.5
2018-02-04T00:06:47.058Z,777.51
2018-02-04T00:06:50.849Z,777.51
2018-02-04T00:06:54.848Z,777.52
2018-02-04T00:06:58.851Z,777.53
2018-02-04T00:07:02.789Z,777.54
2018-02-04T00:07:06.682Z,777.53
2018-02-04T00:07:10.478Z,777.51
2018-02-04T00:07:14.478Z,777.54
2018-02-04T00:07:18.482Z,777.54
2018-02-04T00:07:22.477Z,777.52
2018-02-04T00:07:26.476Z,777.49
2018-02-04T00:07:30.379Z,777.46
2018-02-04T00:07:34.168Z,777.49
2018-02-04T00:07:38.165Z,777.47
2018-02-04T00:07:42.166Z,777.47
2018-02-04T00:07:46.270Z,777.48
2018-02-04T00:07:50.166Z,777.54
2018-02-04T00:07:54.162Z,777.53
2018-02-04T00:07:58.053Z,777.52
2018-02-04T00:08:01.950Z,777.46
2018-02-04T00:08:05.638Z,777.53
2018-02-04T00:08:09.540Z,777.53
2018-02-04T00:08:13.330Z,777.53
2018-02-04T00:08:17.438Z,777.49
2018-02-04T00:08:21.437Z,777.52
2018-02-04T00:08:25.225Z,777.51
2018-02-04T00:08:29.123Z,777.52
2018-02-04T00:08:33.121Z,777.52
2018-02-04T00:08:37.336Z,777.53
2018-02-04T00:08:41.235Z,777.51
2018-02-04T00:08:45.127Z,777.51
2018-02-04T00:08:48.808Z,777.54
2018-02-04T00:08:52.910Z,777.51
2018-02-04T00:08:56.909Z,777.54
2018-02-04T00:09:00.804Z,777.5
2018-02-04T00:09:05.109Z,777.49
2018-02-04T00:09:09.118Z,777.52
2018-02-04T00:09:13.119Z,777.51
2018-02-04T00:09:17.119Z,777.51
2018-02-04T00:09:21.119Z,777.51
2018-02-04T00:09:24.806Z,777.53
2018-02-04T00:09:28.927Z,777.52
2018-02-04T00:09:32.922Z,777.54
2018-02-04T00:09:37.020Z,777.55
2018-02-04T00:09:40.813Z,777.55
2018-02-04T00:09:44.820Z,777.54
2018-02-04T00:09:48.821Z,777.55
2018-02-04T00:09:52.615Z,777.52
2018-02-04T00:09:56.717Z,777.55
2018-02-04T00:10:00.825Z,777.53
2018-02-04T00:10:04.825Z,777.53
2018-02-04T00:10:08.723Z,777.55
2018-02-04T00:10:12.739Z,777.54
2018-02-04T00:10:16.850Z,777.56
2018-02-04T00:10:20.951Z,777.51
2018-02-04T00:10:24.948Z,777.55
2018-02-04T00:10:28.842Z,777.55
2018-02-04T00:10:33.063Z,777.51
2018-02-04T00:10:37.067Z,777.47
2018-02-04T00:10:41.067Z,777.53
2018-02-04T00:10:45.121Z,777.55
2018-02-04T00:10:49.017Z,777.55
2018-02-04T00:10:53.122Z,777.54
2018-02-04T00:10:56.958Z,777.55
2018-02-04T00:11:00.749Z,777.53
2018-02-04T00:11:04.692Z,777.56
2018-02-04T00:11:08.799Z,777.55
2018-02-04T00:11:12.866Z,777.55
2018-02-04T00:11:17.084Z,777.55
2018-02-04T00:11:20.933Z,777.56
2018-02-04T00:11:24.826Z,777.53
2018-02-04T00:11:28.719Z,777.53
2018-02-04T00:11:32.621Z,777.52
2018-02-04T00:11:36.515Z,777.56
2018-02-04T00:11:40.422Z,777.56
2018-02-04T00:11:44.317Z,777.52
2018-02-04T00:11:48.001Z,777.54
2018-02-04T00:11:51.999Z,777.54
2018-02-04T00:11:55.995Z,777.54
2018-02-04T00:11:59.998Z,777.55
2018-02-04T00:12:03.785Z,777.52
2018-02-04T00:12:07.784Z,777.54
2018-02-04T00:12:11.572Z,777.53
2018-02-04T00:12:15.784Z,777.55
2018-02-04T00:12:19.579Z,777.54
2018-02-04T00:12:23.476Z,777.5
2018-02-04T00:12:27.477Z,777.53
2018-02-04T00:12:31.591Z,777.57
2018-02-04T00:12:35.600Z,777.56
2018-02-04T00:12:39.807Z,777.56
2018-02-04T00:12:43.810Z,777.51
2018-02-04T00:12:47.598Z,777.54
2018-02-04T00:12:51.389Z,777.53
2018-02-04T00:12:55.076Z,777.52
2018-02-04T00:12:59.082Z,777.53
2018-02-04T00:13:03.280Z,777.54
2018-02-04T00:13:07.176Z,777.58
2018-02-04T00:13:11.070Z,777.51
2018-02-04T00:13:14.856Z,777.54
2018-02-04T00:13:18.856Z,777.55
2018-02-04T00:13:22.750Z,777.55
2018-02-04T00:13:26.747Z,777.57
2018-02-04T00:13:30.750Z,777.55
2018-02-04T00:13:34.852Z,777.59
2018-02-04T00:13:38.744Z,777.59
2018-02-04T00:13:42.639Z,777.59
2018-02-04T00:13:46.745Z,777.59
2018-02-04T00:13:50.644Z,777.54
2018-02-04T00:13:54.432Z,777.55
2018-02-04T00:13:58.225Z,777.57
2018-02-04T00:14:02.524Z,777.55
2018-02-04T00:14:06.630Z,777.52
2018-02-04T00:14:10.530Z,777.56
2018-02-04T00:14:14.481Z,777.57
2018-02-04T00:14:18.376Z,777.56
2018-02-04T00:14:22.280Z,777.59
2018-02-04T00:14:26.173Z,777.56
2018-02-04T00:14:29.963Z,777.56
2018-02-04T00:14:33.965Z,777.55
2018-02-04T00:14:38.177Z,777.54
2018-02-04T00:14:42.503Z,777.47
2018-02-04T00:14:46.290Z,777.48
2018-02-04T00:14:50.289Z,777.5
2018-02-04T00:14:54.409Z,777.49
2018-02-04T00:14:58.291Z,777.49
2018-02-04T00:15:02.292Z,777.48
2018-02-04T00:15:06.290Z,777.49
2018-02-04T00:15:10.503Z,777.49
2018-02-04T00:15:14.395Z,777.51
2018-02-04T00:15:18.298Z,777.52
2018-02-04T00:15:22.510Z,777.5
2018-02-04T00:15:26.297Z,777.5
2018-02-04T00:15:30.189Z,777.51
2018-02-04T00:15:34.199Z,777.51
2018-02-04T00:15:38.096Z,777.52
2018-02-04T00:15:42.103Z,777.48
2018-02-04T00:15:46.102Z,777.51
2018-02-04T00:15:50.053Z,777.49
2018-02-04T00:15:54.058Z,777.5
2018-02-04T00:15:57.844Z,777.47
2018-02-04T00:16:01.735Z,777.47
2018-02-04T00:16:05.993Z,777.46
2018-02-04T00:16:09.786Z,777.46
2018-02-04T00:16:13.686Z,777.49
2018-02-04T00:16:17.947Z,777.47
2018-02-04T00:16:21.735Z,777.47
2018-02-04T00:16:25.524Z,777.46
2018-02-04T00:16:29.308Z,777.5
2018-02-04T00:16:33.203Z,777.46
2018-02-04T00:16:37.204Z,777.46
2018-02-04T00:16:41.207Z,777.45
2018-02-04T00:16:44.995Z,777.46
2018-02-04T00:16:48.787Z,777.46
2018-02-04T00:16:52.578Z,777.46
2018-02-04T00:16:56.373Z,777.48
2018-02-04T00:17:00.265Z,777.47
2018-02-04T00:17:04.512Z,777.46
2018-02-04T00:17:08.301Z,777.45
2018-02-04T00:17:12.188Z,777.45
2018-02-04T00:17:16.402Z,777.41
2018-02-04T00:17:20.198Z,777.43
2018-02-04T00:17:24.198Z,777.45
2018-02-04T00:17:28.199Z,777.4
2018-02-04T00:17:32.102Z,777.42
2018-02-04T00:17:36.097Z,777.46
2018-02-04T00:17:40.248Z,777.44
2018-02-04T00:17:43.935Z,777.47
2018-02-04T00:17:47.626Z,777.44
2018-02-04T00:17:51.519Z,777.46
2018-02-04T00:17:55.414Z,777.43
2018-02-04T00:17:59.415Z,777.44
2018-02-04T00:18:03.428Z,777.46
2018-02-04T00:18:07.431Z,777.45
2018-02-04T00:18:11.219Z,777.47
2018-02-04T00:18:15.219Z,777.44
2018-02-04T00:18:19.321Z,777.44
2018-02-04T00:18:23.212Z,777.43
2018-02-04T00:18:27.215Z,777.43
2018-02-04T00:18:31.009Z,777.48
2018-02-04T00:18:34.798Z,777.45
2018-02-04T00:18:39.007Z,777.43
2018-02-04T00:18:43.007Z,777.38
2018-02-04T00:18:47.011Z,777.36
2018-02-04T00:18:50.702Z,777.39
2018-02-04T00:18:54.489Z,777.45
2018-02-04T00:18:58.388Z,777.41
2018-02-04T00:19:02.504Z,777.42
2018-02-04T00:19:06.187Z,777.4
2018-02-04T00:19:10.188Z,777.41
2018-02-04T00:19:14.397Z,777.38
2018-02-04T00:19:18.401Z,777.38
2018-02-04T00:19:22.406Z,777.39
2018-02-04T00:19:26.202Z,777.4
2018-02-04T00:19:29.993Z,777.41
2018-02-04T00:19:34.207Z,777.41
2018-02-04T00:19:38.106Z,777.4
2018-02-04T00:19:42.218Z,777.41
2018-02-04T00:19:46.007Z,777.38
2018-02-04T00:19:49.904Z,777.38
2018-02-04T00:19:53.908Z,777.38
2018-02-04T00:19:57.694Z,777.42
2018-02-04T00:20:01.885Z,777.4
2018-02-04T00:20:05.782Z,777.37
2018-02-04T00:20:09.786Z,777.37
2018-02-04T00:20:13.576Z,777.36
2018-02-04T00:20:17.469Z,777.39
2018-02-04T00:20:21.359Z,777.37
2018-02-04T00:20:25.042Z,777.4
2018-02-04T00:20:29.156Z,777.36
2018-02-04T00:20:32.953Z,777.37
2018-02-04T00:20:37.217Z,777.37
2018-02-04T00:20:41.115Z,777.33
2018-02-04T00:20:45.115Z,777.32
2018-02-04T00:20:48.901Z,777.35
2018-02-04T00:20:52.900Z,777.39
2018-02-04T00:20:56.801Z,777.39
2018-02-04T00:21:00.703Z,777.36
2018-02-04T00:21:04.646Z,777.37
2018-02-04T00:21:08.437Z,777.39
2018-02-04T00:21:12.332Z,777.34
2018-02-04T00:21:16.118Z,777.34
2018-02-04T00:21:20.122Z,777.34
2018-02-04T00:21:23.804Z,777.35
2018-02-04T00:21:27.811Z,777.37
2018-02-04T00:21:31.715Z,777.34
2018-02-04T00:21:35.614Z,777.36
2018-02-04T00:21:39.721Z,777.38
2018-02-04T00:21:43.829Z,777.39
2018-02-04T00:21:47.722Z,777.37
2018-02-04T00:21:51.723Z,777.35
2018-02-04T00:21:55.616Z,777.36
2018-02-04T00:21:59.511Z,777.37
2018-02-04T00:22:03.300Z,777.35
2018-02-04T00:22:06.985Z,777.36
2018-02-04T00:22:10.777Z,777.36
2018-02-04T00:22:14.898Z,777.37
2018-02-04T00:22:18.893Z,777.38
2018-02-04T00:22:22.891Z,777.34
2018-02-04T00:22:26.794Z,777.39
2018-02-04T00:22:30.900Z,777.35
2018-02-04T00:22:34.799Z,777.34
2018-02-04T00:22:38.910Z,777.38
2018-02-04T00:22:43.013Z,777.36
2018-02-04T00:22:47.020Z,777.35
2018-02-04T00:22:51.123Z,777.36
2018-02-04T00:22:54.808Z,777.35
2018-02-04T00:22:58.908Z,777.38
2018-02-04T00:23:03.057Z,777.37
2018-02-04T00:23:07.058Z,777.38
2018-02-04T00:23:10.954Z,777.39
2018-02-04T00:23:14.760Z,777.34
2018-02-04T00:23:18.755Z,777.34
2018-02-04T00:23:22.446Z,777.34
2018-02-04T00:23:26.131Z,777.33
2018-02-04T00:23:30.025Z,777.36
2018-02-04T00:23:34.129Z,777.33
2018-02-04T00:23:38.345Z,777.35
2018-02-04T00:23:42.136Z,777.32
2018-02-04T00:23:46.340Z,777.33
2018-02-04T00:23:50.134Z,777.34
2018-02-04T00:23:54.242Z,777.36
2018-02-04T00:23:58.033Z,777.31
2018-02-04T00:24:02.031Z,777.34
2018-02-04T00:24:06.028Z,777.33
2018-02-04T00:24:09.924Z,777.33
2018-02-04T00:24:14.140Z,777.34
2018-02-04T00:24:17.933Z,777.32
2018-02-04T00:24:21.938Z,777.35
2018-02-04T00:24:25.940Z,777.32
2018-02-04T00:24:29.732Z,777.32
2018-02-04T00:24:33.732Z,777.31
2018-02-04T00:24:37.623Z,777.32
2018-02-04T00:24:41.639Z,777.3
2018-02-04T00:24:45.430Z,777.29
2018-02-04T00:24:49.749Z,777.31
2018-02-04T00:24:53.749Z,777.3
2018-02-04T00:24:57.749Z,777.31
2018-02-04T00:25:01.433Z,777.33
2018-02-04T00:25:05.741Z,777.32
2018-02-04T00:25:09.641Z,777.37
2018-02-04T00:25:13.634Z,777.35
2018-02-04T00:25:17.636Z,777.32
2018-02-04T00:25:21.636Z,777.32
2018-02-04T00:25:25.429Z,777.32
2018-02-04T00:25:29.422Z,777.28
2018-02-04T00:25:33.533Z,777.3
2018-02-04T00:25:37.322Z,777.31
2018-02-04T00:25:41.267Z,777.29
2018-02-04T00:25:45.477Z,777.33
2018-02-04T00:25:49.388Z,777.33
2018-02-04T00:25:53.286Z,777.32
2018-02-04T00:25:57.292Z,777.3
2018-02-04T00:26:01.184Z,777.3
2018-02-04T00:26:05.637Z,777.27
2018-02-04T00:26:09.423Z,777.3
2018-02-04T00:26:13.219Z,777.28
2018-02-04T00:26:17.012Z,777.28
2018-02-04T00:26:21.019Z,777.26
2018-02-04T00:26:24.806Z,777.23
2018-02-04T00:26:28.904Z,777.26
2018-02-04T00:26:32.800Z,777.27
2018-02-04T00:26:36.802Z,777.3
2018-02-04T00:26:40.803Z,777.28
2018-02-04T00:26:44.802Z,777.31
2018-02-04T00:26:48.802Z,777.29
2018-02-04T00:26:52.799Z,777.32
2018-02-04T00:26:56.693Z,777.28
2018-02-04T00:27:00.496Z,777.32
2018-02-04T00:27:04.381Z,777.33
2018-02-04T00:27:08.385Z,777.3
2018-02-04T00:27:12.282Z,777.32
2018-02-04T00:27:16.173Z,777.31
2018-02-04T00:27:20.064Z,777.31
2018-02-04T00:27:23.859Z,777.33
2018-02-04T00:27:27.650Z,777.3
2018-02-04T00:27:31.649Z,777.29
2018-02-04T00:27:35.812Z,777.31
2018-02-04T00:27:39.705Z,777.3
2018-02-04T00:27:43.812Z,777.3
2018-02-04T00:27:47.605Z,777.29
2018-02-04T00:27:51.397Z,777.29
2018-02-04T00:27:55.290Z,777.32
2018-02-04T00:27:59.289Z,777.32
2018-02-04T00:28:03.348Z,777.3
2018-02-04T00:28:07.344Z,777.29
2018-02-04T00:28:11.240Z,777.28
2018-02-04T00:28:15.236Z,777.29
2018-02-04T00:28:19.126Z,777.29
2018-02-04T00:28:22.811Z,777.3
2018-02-04T00:28:26.595Z,777.26
2018-02-04T00:28:30.497Z,777.3
2018-02-04T00:28:34.494Z,777.26
2018-02-04T00:28:38.493Z,777.29
2018-02-04T00:28:42.492Z,777.29
2018-02-04T00:28:46.746Z,777.26
2018-02-04T00:28:50.949Z,777.24
2018-02-04T00:28:54.628Z,777.22
2018-02-04T00:28:58.521Z,777.22
2018-02-04T00:29:02.422Z,777.28
2018-02-04T00:29:06.117Z,777.32
2018-02-04T00:29:10.018Z,777.27
2018-02-04T00:29:13.908Z,777.28
2018-02-04T00:29:18.007Z,777.28
2018-02-04T00:29:22.216Z,777.21
2018-02-04T00:29:26.012Z,777.22
2018-02-04T00:29:29.802Z,777.23
2018-02-04T00:29:33.801Z,777.25
2018-02-04T00:29:37.699Z,777.26
2018-02-04T00:29:41.811Z,777.24
2018-02-04T00:29:46.015Z,777.24
2018-02-04T00:29:50.015Z,777.31
2018-02-04T00:29:54.125Z,777.27
2018-02-04T00:29:58.132Z,777.29
2018-02-04T00:30:02.031Z,777.29
2018-02-04T00:30:06.137Z,777.27
2018-02-04T00:30:10.053Z,777.3
2018-02-04T00:30:13.848Z,777.28
2018-02-04T00:30:17.956Z,777.31
2018-02-04T00:30:21.960Z,777.3
2018-02-04T00:30:26.150Z,777.31
2018-02-04T00:30:29.941Z,777.29
2018-02-04T00:30:33.731Z,777.31
2018-02-04T00:30:37.729Z,777.27
2018-02-04T00:30:41.622Z,777.28
2018-02-04T00:30:45.512Z,777.3
2018-02-04T00:30:49.408Z,777.28
2018-02-04T00:30:53.507Z,777.29
2018-02-04T00:30:57.515Z,777.3
2018-02-04T00:31:01.411Z,777.33
2018-02-04T00:31:05.396Z,777.28
2018-02-04T00:31:09.083Z,777.31
2018-02-04T00:31:12.989Z,777.28
2018-02-04T00:31:16.784Z,777.28
2018-02-04T00:31:20.620Z,777.31
2018-02-04T00:31:24.625Z,777.32
2018-02-04T00:31:28.422Z,777.31
2018-02-04T00:31:32.215Z,777.31
2018-02-04T00:31:36.008Z,777.27
2018-02-04T00:31:40.014Z,777.27
2018-02-04T00:31:44.112Z,777.34
2018-02-04T00:31:47.906Z,777.3
2018-02-04T00:31:51.586Z,777.33
2018-02-04T00:31:55.379Z,777.31
2018-02-04T00:31:59.387Z,777.36
2018-02-04T00:32:03.562Z,777.31
2018-02-04T00:32:07.453Z,777.29
2018-02-04T00:32:11.657Z,777.37
2018-02-04T00:32:15.763Z,777.36
2018-02-04T00:32:19.868Z,777.34
2018-02-04T00:32:23.764Z,777.36
2018-02-04T00:32:27.454Z,777.34
2018-02-04T00:32:31.344Z,777.34
2018-02-04T00:32:35.354Z,777.34
2018-02-04T00:32:39.251Z,777.34
2018-02-04T00:32:43.202Z,777.34
2018-02-04T00:32:47.203Z,777.34
2018-02-04T00:32:51.097Z,777.35
2018-02-04T00:32:54.995Z,777.35
2018-02-04T00:32:58.892Z,777.39
2018-02-04T00:33:03.351Z,777.37
2018-02-04T00:33:07.458Z,777.39
2018-02-04T00:33:11.356Z,777.37
2018-02-04T00:33:15.357Z,777.36
2018-02-04T00:33:19.249Z,777.36
2018-02-04T00:33:23.361Z,777.39
2018-02-04T00:33:27.468Z,777.39
2018-02-04T00:33:31.362Z,777.37
2018-02-04T00:33:35.415Z,777.35
2018-02-04T00:33:39.419Z,777.38
2018-02-04T00:33:43.321Z,777.43
2018-02-04T00:33:47.321Z,777.4
2018-02-04T00:33:51.110Z,777.41
2018-02-04T00:33:55.118Z,777.41
2018-02-04T00:33:59.006Z,777.41
2018-02-04T00:34:03.149Z,777.41
2018-02-04T00:34:07.305Z,777.41
2018-02-04T00:34:11.518Z,777.39
2018-02-04T00:34:15.410Z,777.41
2018-02-04T00:34:19.310Z,777.44
2018-02-04T00:34:23.314Z,777.43
2018-02-04T00:34:27.422Z,777.46
2018-02-04T00:34:31.421Z,777.43
2018-02-04T00:34:35.318Z,777.42
2018-02-04T00:34:39.527Z,777.44
2018-02-04T00:34:43.322Z,777.39
2018-02-04T00:34:47.223Z,777.41
2018-02-04T00:34:51.119Z,777.42
2018-02-04T00:34:54.912Z,777.47
2018-02-04T00:34:58.806Z,777.42
2018-02-04T00:35:02.712Z,777.47
2018-02-04T00:35:06.608Z,777.46
2018-02-04T00:35:10.501Z,777.5
2018-02-04T00:35:14.185Z,777.48
2018-02-04T00:35:17.974Z,777.48
2018-02-04T00:35:21.659Z,777.48
2018-02-04T00:35:25.558Z,777.48
2018-02-04T00:35:29.458Z,777.52
2018-02-04T00:35:33.356Z,777.49
2018-02-04T00:35:37.467Z,777.5
2018-02-04T00:35:41.353Z,777.51
2018-02-04T00:35:45.253Z,777.52
2018-02-04T00:35:49.145Z,777.49
2018-02-04T00:35:53.045Z,777.54
2018-02-04T00:35:56.938Z,777.53
2018-02-04T00:36:00.720Z,777.52
2018-02-04T00:36:04.831Z,777.56
2018-02-04T00:36:08.827Z,777.54
2018-02-04T00:36:12.510Z,777.52
2018-02-04T00:36:16.407Z,777.51
2018-02-04T00:36:20.307Z,777.52
2018-02-04T00:36:24.101Z,777.54
2018-02-04T00:36:28.112Z,777.54
2018-02-04T00:36:31.902Z,777.56
2018-02-04T00:36:35.789Z,777.54
2018-02-04T00:36:39.908Z,777.55
2018-02-04T00:36:43.692Z,777.54
2018-02-04T00:36:47.802Z,777.58
2018-02-04T00:36:51.588Z,777.55
2018-02-04T00:36:55.378Z,777.57
2018-02-04T00:36:59.271Z,777.55
2018-02-04T00:37:03.268Z,777.55
2018-02-04T00:37:07.163Z,777.55
2018-02-04T00:37:11.168Z,777.55
2018-02-04T00:37:15.062Z,777.59
2018-02-04T00:37:19.061Z,777.6
2018-02-04T00:37:23.164Z,777.59
2018-02-04T00:37:27.054Z,777.59
2018-02-04T00:37:31.067Z,777.57
2018-02-04T00:37:35.066Z,777.6
2018-02-04T00:37:39.069Z,777.6
2018-02-04T00:37:43.172Z,777.61
2018-02-04T00:37:47.278Z,777.6
2018-02-04T00:37:51.172Z,777.61
2018-02-04T00:37:55.176Z,777.64
2018-02-04T00:37:58.858Z,777.55
2018-02-04T00:38:02.853Z,777.57
2018-02-04T00:38:06.752Z,777.6
2018-02-04T00:38:10.753Z,777.59
2018-02-04T00:38:14.808Z,777.6
2018-02-04T00:38:18.599Z,777.63
2018-02-04T00:38:22.388Z,777.67
2018-02-04T00:38:26.285Z,777.64
2018-02-04T00:38:30.499Z,777.63
2018-02-04T00:38:34.503Z,777.66
2018-02-04T00:38:38.827Z,777.65
2018-02-04T00:38:42.724Z,777.64
2018-02-04T00:38:46.626Z,777.65
2018-02-04T00:38:50.625Z,777.68
2018-02-04T00:38:54.526Z,777.71
2018-02-04T00:38:58.534Z,777.68
2018-02-04T00:39:02.426Z,777.67
2018-02-04T00:39:06.430Z,777.67
2018-02-04T00:39:10.438Z,777.63
2018-02-04T00:39:14.229Z,777.66
2018-02-04T00:39:18.238Z,777.67
2018-02-04T00:39:22.138Z,777.68
2018-02-04T00:39:26.146Z,777.67
2018-02-04T00:39:29.937Z,777.68
2018-02-04T00:39:34.039Z,777.66
2018-02-04T00:39:38.042Z,777.67
2018-02-04T00:39:42.152Z,777.7
2018-02-04T00:39:46.154Z,777.71
2018-02-04T00:39:50.155Z,777.68
2018-02-04T00:39:54.409Z,777.69
2018-02-04T00:39:58.308Z,777.7
2018-02-04T00:40:02.096Z,777.69
2018-02-04T00:40:05.991Z,777.72
2018-02-04T00:40:09.996Z,777.69
2018-02-04T00:40:13.996Z,777.7
2018-02-04T00:40:17.792Z,777.71
2018-02-04T00:40:21.899Z,777.65
2018-02-04T00:40:25.898Z,777.67
2018-02-04T00:40:29.795Z,777.66
2018-02-04T00:40:33.580Z,777.71
2018-02-04T00:40:37.473Z,777.72
2018-02-04T00:40:41.582Z,777.71
2018-02-04T00:40:45.584Z,777.72
2018-02-04T00:40:49.385Z,777.75
2018-02-04T00:40:53.282Z,777.73
2018-02-04T00:40:57.177Z,777.75
2018-02-04T00:41:00.866Z,777.71
2018-02-04T00:41:05.177Z,777.75
2018-02-04T00:41:09.066Z,777.75
2018-02-04T00:41:12.860Z,777.74
2018-02-04T00:41:16.968Z,777.77
2018-02-04T00:41:20.755Z,777.77
2018-02-04T00:41:24.760Z,777.75
2018-02-04T00:41:28.552Z,777.76
2018-02-04T00:41:32.758Z,777.78
2018-02-04T00:41:36.762Z,777.77
2018-02-04T00:41:40.870Z,777.76
2018-02-04T00:41:44.763Z,777.74
2018-02-04T00:41:48.767Z,777.78
2018-02-04T00:41:52.666Z,777.78
2018-02-04T00:41:56.456Z,777.81
2018-02-04T00:42:00.350Z,777.79
2018-02-04T00:42:04.148Z,777.79
2018-02-04T00:42:08.044Z,777.8
2018-02-04T00:42:12.149Z,777.78
2018-02-04T00:42:16.043Z,777.76
2018-02-04T00:42:19.943Z,777.8
2018-02-04T00:42:23.837Z,777.73
2018-02-04T00:42:27.958Z,777.75
2018-02-04T00:42:32.087Z,777.77
2018-02-04T00:42:36.337Z,777.75
2018-02-04T00:42:40.346Z,777.77
2018-02-04T00:42:44.238Z,777.79
2018-02-04T00:42:48.030Z,777.75
2018-02-04T00:42:51.821Z,777.74
2018-02-04T00:42:55.714Z,777.79
2018-02-04T00:42:59.729Z,777.76
2018-02-04T00:43:03.722Z,777.74
2018-02-04T00:43:07.613Z,777.79
2018-02-04T00:43:11.620Z,777.77
2018-02-04T00:43:15.509Z,777.76
2018-02-04T00:43:19.510Z,777.76
2018-02-04T00:43:23.423Z,777.83
2018-02-04T00:43:27.318Z,777.82
2018-02-04T00:43:31.006Z,777.82
2018-02-04T00:43:35.121Z,777.8
2018-02-04T00:43:39.221Z,777.83
2018-02-04T00:43:43.122Z,777.79
2018-02-04T00:43:46.908Z,777.85
2018-02-04T00:43:50.804Z,777.82
2018-02-04T00:43:54.907Z,777.83
2018-02-04T00:43:58.802Z,777.82
2018-02-04T00:44:02.808Z,777.79
2018-02-04T00:44:06.599Z,777.82
2018-02-04T00:44:10.500Z,777.82
2018-02-04T00:44:14.500Z,777.81
2018-02-04T00:44:18.292Z,777.84
2018-02-04T00:44:22.188Z,777.81
2018-02-04T00:44:25.978Z,777.84
2018-02-04T00:44:29.659Z,777.82
2018-02-04T00:44:33.444Z,777.8
2018-02-04T00:44:37.549Z,777.81
2018-02-04T00:44:41.552Z,777.83
2018-02-04T00:44:45.449Z,777.81
2018-02-04T00:44:49.242Z,777.82
2018-02-04T00:44:53.136Z,777.8
2018-02-04T00:44:57.138Z,777.84
2018-02-04T00:45:01.135Z,777.82
2018-02-04T00:45:04.978Z,777.82
2018-02-04T00:45:08.768Z,777.81
2018-02-04T00:45:12.660Z,777.79
2018-02-04T00:45:16.550Z,777.81
2018-02-04T00:45:20.445Z,777.81
2018-02-04T00:45:24.337Z,777.84
2018-02-04T00:45:28.237Z,777.81
2018-02-04T00:45:32.028Z,777.87
2018-02-04T00:45:36.293Z,777.81
2018-02-04T00:45:40.408Z,777.85
2018-02-04T00:45:44.510Z,777.84
2018-02-04T00:45:48.305Z,777.85
2018-02-04T00:45:52.412Z,777.84
2018-02-04T00:45:56.310Z,777.85
2018-02-04T00:46:00.200Z,777.82
2018-02-04T00:46:04.308Z,777.85
2018-02-04T00:46:08.096Z,777.87
2018-02-04T00:46:12.004Z,777.88
2018-02-04T00:46:15.899Z,777.87
2018-02-04T00:46:19.687Z,777.86
2018-02-04T00:46:23.587Z,777.85
2018-02-04T00:46:27.377Z,777.83
2018-02-04T00:46:31.485Z,777.86
2018-02-04T00:46:35.478Z,777.88
2018-02-04T00:46:39.576Z,777.86
2018-02-04T00:46:43.581Z,777.84
2018-02-04T00:46:47.484Z,777.85
2018-02-04T00:46:51.280Z,777.88
2018-02-04T00:46:55.176Z,777.86
2018-02-04T00:46:59.077Z,777.85
2018-02-04T00:47:03.187Z,777.87
2018-02-04T00:47:07.089Z,777.86
2018-02-04T00:47:10.777Z,777.84
2018-02-04T00:47:14.993Z,777.87
2018-02-04T00:47:18.803Z,777.85
2018-02-04T00:47:22.909Z,777.9
2018-02-04T00:47:26.909Z,777.85
2018-02-04T00:47:30.916Z,777.89
2018-02-04T00:47:34.937Z,777.86
2018-02-04T00:47:38.733Z,777.86
2018-02-04T00:47:42.847Z,777.89
2018-02-04T00:47:47.174Z,777.87
2018-02-04T00:47:51.070Z,777.89
2018-02-04T00:47:55.088Z,777.86
2018-02-04T00:47:59.079Z,777.87
2018-02-04T00:48:03.326Z,777.86
2018-02-04T00:48:07.116Z,777.87
2018-02-04T00:48:10.906Z,777.89
2018-02-04T00:48:14.696Z,777.89
2018-02-04T00:48:18.587Z,777.84
2018-02-04T00:48:22.805Z,777.86
2018-02-04T00:48:26.598Z,777.85
2018-02-04T00:48:30.600Z,777.89
2018-02-04T00:48:34.600Z,777.87
2018-02-04T00:48:38.389Z,777.9
2018-02-04T00:48:42.282Z,777.9
2018-02-04T00:48:46.180Z,777.95
2018-02-04T00:48:50.176Z,777.91
2018-02-04T00:48:54.178Z,777.93
2018-02-04T00:48:58.069Z,777.93
2018-02-04T00:49:02.177Z,777.91
2018-02-04T00:49:05.964Z,777.95
2018-02-04T00:49:09.965Z,777.93
2018-02-04T00:49:13.753Z,777.94
2018-02-04T00:49:17.860Z,777.9
2018-02-04T00:49:21.861Z,777.91
2018-02-04T00:49:25.654Z,777.91